Time;durP1;ratioP1;P1;durP2;ratioP2;P2;SDS_P1;SDS_P2;PMS_P1;PMS_P2;Temp;Humidity;BMP_temperature;BMP_pressure;BME280_temperature;BME280_humidity;BME280_pressure;Samples;Min_cycle;Max_cycle;Signal;HPM_P1;HPM_P2
2023/06/15 00:01:25;;;;;;;8.57;1.67;;;;;;;;;;10455007;28;20033;-58
2023/06/15 00:06:27;;;;;;;2.65;1.60;;;;;;;;;;10445450;28;20401;-59
2023/06/15 00:11:28;;;;;;;2.42;1.70;;;;;;;;;;10452071;28;20086;-57
2023/06/15 00:16:31;;;;;;;2.95;1.50;;;;;;;;;;10452885;28;20017;-58
2023/06/15 00:21:33;;;;;;;2.15;1.63;;;;;;;;;;10454030;28;20040;-59
2023/06/15 00:26:34;;;;;;;4.78;1.95;;;;;;;;;;10454714;28;20041;-60
2023/06/15 00:31:35;;;;;;;3.20;1.65;;;;;;;;;;10453437;28;20049;-60
2023/06/15 00:36:35;;;;;;;2.38;1.90;;;;;;;;;;10453371;28;20029;-60
2023/06/15 00:41:43;;;;;;;2.03;1.80;;;;;;;;;;10453385;28;20060;-60
2023/06/15 00:46:44;;;;;;;;;;;;;;;;;;10452895;28;20745;-59
2023/06/15 00:51:46;;;;;;;1.90;1.52;;;;;;;;;;10454057;28;20535;-59
2023/06/15 00:56:46;;;;;;;11.43;1.73;;;;;;;;;;10452278;28;20029;-59
2023/06/15 01:01:47;;;;;;;1.70;1.60;;;;;;;;;;10449694;28;20203;-58
2023/06/15 01:06:51;;;;;;;3.47;1.90;;;;;;;;;;10453079;28;20027;-59
2023/06/15 01:11:58;;;;;;;3.45;1.70;;;;;;;;;;10449808;28;20028;-58
2023/06/15 01:17:08;;;;;;;2.42;1.67;;;;;;;;;;10451954;28;20021;-58
2023/06/15 01:22:24;;;;;;;2.10;1.90;;;;;;;;;;10452159;28;20416;-59
2023/06/15 01:27:26;;;;;;;1.52;1.40;;;;;;;;;;10450498;28;20534;-58
2023/06/15 01:32:26;;;;;;;3.22;1.98;;;;;;;;;;10449082;28;20116;-59
2023/06/15 01:37:27;;;;;;;4.78;1.80;;;;;;;;;;10448627;28;20025;-58
2023/06/15 01:42:28;;;;;;;3.15;1.70;;;;;;;;;;10450306;28;20052;-59
2023/06/15 01:47:29;;;;;;;4.88;1.80;;;;;;;;;;10451467;28;20028;-59
2023/06/15 01:52:30;;;;;;;1.95;1.50;;;;;;;;;;10448553;28;20029;-59
2023/06/15 01:57:38;;;;;;;3.47;1.65;;;;;;;;;;10450354;28;20033;-59
2023/06/15 02:02:39;;;;;;;5.18;1.83;;;;;;;;;;10450278;28;20044;-58
2023/06/15 02:07:40;;;;;;;2.50;1.85;;;;;;;;;;10450086;28;20094;-58
2023/06/15 02:12:40;;;;;;;2.40;1.80;;;;;;;;;;10449638;28;20471;-59
2023/06/15 02:17:41;;;;;;;1.95;1.65;;;;;;;;;;10449349;28;20021;-59
2023/06/15 02:22:41;;;;;;;4.32;1.70;;;;;;;;;;10450137;28;20035;-58
2023/06/15 02:27:42;;;;;;;1.60;1.50;;;;;;;;;;10448588;28;20233;-58
2023/06/15 02:32:43;;;;;;;8.35;1.90;;;;;;;;;;10449342;28;20059;-59
2023/06/15 02:37:44;;;;;;;2.05;1.85;;;;;;;;;;10449359;28;20119;-58
2023/06/15 02:42:44;;;;;;;3.80;1.77;;;;;;;;;;10443965;28;20063;-59
2023/06/15 02:47:45;;;;;;;4.68;1.65;;;;;;;;;;10448902;28;20025;-59
2023/06/15 02:52:47;;;;;;;2.22;1.65;;;;;;;;;;10444570;28;20036;-58
2023/06/15 02:57:47;;;;;;;4.50;1.65;;;;;;;;;;10444495;28;20025;-58
2023/06/15 03:02:48;;;;;;;1.52;1.33;;;;;;;;;;10445890;28;20102;-58
2023/06/15 03:07:48;;;;;;;1.85;1.40;;;;;;;;;;10450878;28;20037;-59
2023/06/15 03:12:49;;;;;;;2.78;1.40;;;;;;;;;;10448221;28;20029;-59
2023/06/15 03:17:50;;;;;;;2.67;1.60;;;;;;;;;;10448312;28;20055;-58
2023/06/15 03:22:50;;;;;;;2.38;1.50;;;;;;;;;;10448212;28;20021;-59
2023/06/15 03:27:53;;;;;;;2.13;1.60;;;;;;;;;;10444962;28;20044;-59
2023/06/15 03:32:53;;;;;;;2.15;1.55;;;;;;;;;;10447137;28;20134;-60
2023/06/15 03:37:54;;;;;;;1.30;1.20;;;;;;;;;;10447351;28;20091;-59
2023/06/15 03:42:54;;;;;;;1.85;1.60;;;;;;;;;;10454447;28;20021;-59
2023/06/15 03:47:55;;;;;;;4.13;1.60;;;;;;;;;;10445979;28;20032;-59
2023/06/15 03:52:56;;;;;;;3.58;1.70;;;;;;;;;;10447406;28;20115;-59
2023/06/15 03:57:56;;;;;;;2.60;1.60;;;;;;;;;;10447453;28;20431;-59
2023/06/15 04:02:57;;;;;;;2.45;1.50;;;;;;;;;;10462169;28;20040;-59
2023/06/15 04:07:59;;;;;;;1.55;1.45;;;;;;;;;;10448393;28;20120;-59
2023/06/15 04:13:00;;;;;;;1.92;1.40;;;;;;;;;;10446789;28;20088;-60
2023/06/15 04:18:00;;;;;;;2.88;1.33;;;;;;;;;;10446891;28;20130;-59
2023/06/15 04:23:01;;;;;;;3.25;1.45;;;;;;;;;;10446259;28;20362;-60
2023/06/15 04:28:02;;;;;;;4.93;1.50;;;;;;;;;;10446086;28;20031;-60
2023/06/15 04:33:04;;;;;;;1.30;1.20;;;;;;;;;;10447412;28;20033;-59
2023/06/15 04:38:05;;;;;;;6.28;1.50;;;;;;;;;;10445634;28;20029;-58
2023/06/15 04:43:06;;;;;;;5.95;1.50;;;;;;;;;;10453864;28;20494;-59
2023/06/15 04:48:06;;;;;;;3.88;1.30;;;;;;;;;;10462955;28;20381;-60
2023/06/15 04:53:07;;;;;;;1.88;1.35;;;;;;;;;;10453504;28;20028;-59
2023/06/15 04:58:07;;;;;;;4.20;1.65;;;;;;;;;;10454524;28;20419;-60
2023/06/15 05:03:10;;;;;;;1.77;1.50;;;;;;;;;;10452147;28;20396;-60
2023/06/15 05:08:13;;;;;;;3.47;1.77;;;;;;;;;;10452924;28;20267;-58
2023/06/15 05:13:14;;;;;;;4.85;1.58;;;;;;;;;;10451373;28;20404;-58
2023/06/15 05:18:14;;;;;;;2.05;1.70;;;;;;;;;;10453590;28;20032;-59
2023/06/15 05:23:15;;;;;;;1.98;1.50;;;;;;;;;;10452036;28;20036;-60
2023/06/15 05:28:18;;;;;;;1.60;1.50;;;;;;;;;;10448016;28;20400;-59
2023/06/15 05:33:19;;;;;;;5.97;1.48;;;;;;;;;;10448905;28;20041;-59
2023/06/15 05:38:22;;;;;;;13.30;1.80;;;;;;;;;;10437518;28;20040;-59
2023/06/15 05:43:22;;;;;;;2.22;1.42;;;;;;;;;;10446923;28;20037;-59
2023/06/15 05:48:23;;;;;;;1.83;1.73;;;;;;;;;;10449350;28;20036;-59
2023/06/15 05:53:23;;;;;;;6.30;1.45;;;;;;;;;;10446826;28;20480;-59
2023/06/15 05:58:24;;;;;;;4.93;2.13;;;;;;;;;;10445901;28;20492;-59
2023/06/15 06:03:24;;;;;;;2.17;1.80;;;;;;;;;;10441281;28;20079;-58
2023/06/15 06:08:26;;;;;;;1.50;1.40;;;;;;;;;;10447077;28;20404;-62
2023/06/15 06:13:26;;;;;;;4.80;1.73;;;;;;;;;;10444080;28;20029;-59
2023/06/15 06:18:28;;;;;;;7.60;1.92;;;;;;;;;;10462291;28;20024;-58
2023/06/15 06:23:28;;;;;;;3.78;1.83;;;;;;;;;;10452715;28;20064;-58
2023/06/15 06:28:29;;;;;;;6.57;2.10;;;;;;;;;;10457243;28;20026;-58
2023/06/15 06:33:30;;;;;;;5.97;1.92;;;;;;;;;;10449584;28;20048;-58
2023/06/15 06:38:30;;;;;;;4.38;2.00;;;;;;;;;;10449911;28;20017;-58
2023/06/15 06:43:31;;;;;;;5.30;1.77;;;;;;;;;;10449388;28;20059;-58
2023/06/15 06:48:31;;;;;;;5.72;1.90;;;;;;;;;;10448657;28;20035;-58
2023/06/15 06:53:32;;;;;;;6.72;2.17;;;;;;;;;;10448529;28;20040;-58
2023/06/15 06:58:32;;;;;;;3.00;2.00;;;;;;;;;;10448732;28;20028;-58
2023/06/15 07:03:33;;;;;;;5.88;1.67;;;;;;;;;;10448096;28;20272;-58
2023/06/15 07:08:33;;;;;;;5.05;1.63;;;;;;;;;;10448683;28;20036;-58
2023/06/15 07:13:34;;;;;;;5.68;1.67;;;;;;;;;;10447432;28;20021;-58
2023/06/15 07:18:35;;;;;;;4.57;1.73;;;;;;;;;;10448297;28;20085;-56
2023/06/15 07:23:35;;;;;;;1.90;1.70;;;;;;;;;;10448390;28;20361;-56
2023/06/15 07:28:36;;;;;;;4.60;1.98;;;;;;;;;;10448183;28;20234;-56
2023/06/15 07:33:37;;;;;;;2.80;1.58;;;;;;;;;;10447487;28;20438;-58
2023/06/15 07:38:37;;;;;;;2.47;1.55;;;;;;;;;;10448007;28;20082;-59
2023/06/15 07:43:38;;;;;;;4.00;1.90;;;;;;;;;;10446897;28;20029;-58
2023/06/15 07:48:38;;;;;;;5.20;1.90;;;;;;;;;;10447821;28;20075;-58
2023/06/15 07:53:39;;;;;;;2.60;1.67;;;;;;;;;;10447252;28;20064;-58
2023/06/15 07:58:40;;;;;;;6.80;2.40;;;;;;;;;;10447189;28;20032;-58
2023/06/15 08:03:40;;;;;;;2.72;1.58;;;;;;;;;;10447237;28;20025;-58
2023/06/15 08:08:41;;;;;;;4.57;1.75;;;;;;;;;;10444856;28;20116;-58
2023/06/15 08:13:42;;;;;;;2.75;1.60;;;;;;;;;;10447025;28;20025;-58
2023/06/15 08:18:43;;;;;;;1.83;1.50;;;;;;;;;;10454552;28;20389;-58
2023/06/15 08:23:43;;;;;;;2.75;1.67;;;;;;;;;;10455005;28;20082;-59
2023/06/15 08:28:44;;;;;;;5.63;1.75;;;;;;;;;;10454221;28;20049;-58
2023/06/15 08:33:44;;;;;;;2.70;1.48;;;;;;;;;;10454240;28;20052;-59
2023/06/15 08:38:45;;;;;;;9.65;1.70;;;;;;;;;;10454086;28;20035;-58
2023/06/15 08:43:48;;;;;;;3.30;1.95;;;;;;;;;;10453406;28;20040;-58
2023/06/15 08:48:52;;;;;;;3.22;1.60;;;;;;;;;;10452392;28;20025;-58
2023/06/15 08:53:56;;;;;;;2.80;1.88;;;;;;;;;;10454027;28;20028;-58
2023/06/15 08:58:56;;;;;;;2.42;1.73;;;;;;;;;;10452577;28;20495;-58
2023/06/15 09:03:57;;;;;;;5.53;2.05;;;;;;;;;;10453085;28;20025;-58
2023/06/15 09:08:58;;;;;;;4.57;1.80;;;;;;;;;;10452543;28;20052;-58
2023/06/15 09:13:58;;;;;;;6.25;2.15;;;;;;;;;;10450973;28;20020;-58
2023/06/15 09:19:00;;;;;;;2.33;1.92;;;;;;;;;;10452661;28;20075;-58
2023/06/15 09:24:04;;;;;;;5.28;2.20;;;;;;;;;;10451415;28;20104;-58
2023/06/15 09:29:11;;;;;;;2.67;1.80;;;;;;;;;;10451458;28;20029;-58
2023/06/15 09:34:13;;;;;;;4.10;1.67;;;;;;;;;;10451557;28;20061;-58
2023/06/15 09:39:22;;;;;;;4.35;1.77;;;;;;;;;;10451568;28;20404;-58
2023/06/15 09:44:23;;;;;;;3.80;1.60;;;;;;;;;;10451744;28;20037;-57
2023/06/15 09:49:27;;;;;;;2.90;2.00;;;;;;;;;;10451486;28;20473;-58
2023/06/15 09:54:31;;;;;;;3.40;1.98;;;;;;;;;;10438081;28;20036;-58
2023/06/15 09:59:31;;;;;;;3.08;2.15;;;;;;;;;;10438223;28;20060;-58
2023/06/15 10:04:36;;;;;;;3.58;2.08;;;;;;;;;;10451160;28;20036;-58
2023/06/15 10:09:44;;;;;;;4.70;2.17;;;;;;;;;;10448714;28;20136;-58
2023/06/15 10:15:01;;;;;;;4.85;2.13;;;;;;;;;;10448831;28;20539;-58
2023/06/15 10:20:09;;;;;;;5.40;2.40;;;;;;;;;;10449290;28;20087;-58
2023/06/15 10:25:09;;;;;;;2.35;1.95;;;;;;;;;;10449027;28;20456;-56
2023/06/15 10:30:23;;;;;;;3.33;2.33;;;;;;;;;;10449407;28;20036;-56
2023/06/15 10:35:40;;;;;;;3.35;2.13;;;;;;;;;;10448465;28;20104;-56
2023/06/15 10:40:47;;;;;;;2.75;2.38;;;;;;;;;;10448148;28;20032;-55
2023/06/15 10:45:48;;;;;;;5.05;2.40;;;;;;;;;;10449661;28;20159;-56
2023/06/15 10:50:51;;;;;;;2.50;2.30;;;;;;;;;;10448691;28;20476;-55
2023/06/15 10:55:54;;;;;;;3.42;2.60;;;;;;;;;;10449050;28;20025;-56
2023/06/15 11:01:07;;;;;;;3.25;2.60;;;;;;;;;;10448095;28;20156;-56
2023/06/15 11:06:15;;;;;;;3.67;2.05;;;;;;;;;;10448199;28;20037;-55
2023/06/15 11:11:42;;;;;;;5.13;2.33;;;;;;;;;;10447594;28;20037;-56
2023/06/15 11:16:42;;;;;;;3.30;2.20;;;;;;;;;;10446793;28;20068;-55
2023/06/15 11:21:56;;;;;;;5.00;2.15;;;;;;;;;;10448950;28;20485;-54
2023/06/15 11:27:02;;;;;;;2.92;2.70;;;;;;;;;;10448487;28;20058;-56
2023/06/15 11:32:04;;;;;;;4.80;2.42;;;;;;;;;;10447651;28;20128;-57
2023/06/15 11:37:06;;;;;;;3.58;2.45;;;;;;;;;;10447221;28;20111;-57
2023/06/15 11:42:08;;;;;;;3.15;2.30;;;;;;;;;;10447858;28;20039;-60
2023/06/15 11:47:13;;;;;;;4.90;2.60;;;;;;;;;;10448088;28;20057;-60
2023/06/15 11:52:15;;;;;;;3.45;2.50;;;;;;;;;;10455205;28;20037;-60
2023/06/15 11:57:15;;;;;;;3.08;2.40;;;;;;;;;;10456006;28;20423;-60
2023/06/15 12:02:16;;;;;;;2.60;2.40;;;;;;;;;;10455711;28;20029;-60
2023/06/15 12:07:17;;;;;;;2.72;2.53;;;;;;;;;;10455310;28;20056;-60
2023/06/15 12:12:32;;;;;;;2.40;2.20;;;;;;;;;;10454653;28;20021;-60
2023/06/15 12:17:34;;;;;;;3.75;2.97;;;;;;;;;;10455473;28;20029;-60
2023/06/15 12:22:40;;;;;;;2.90;2.70;;;;;;;;;;10454857;28;20024;-59
2023/06/15 12:27:45;;;;;;;7.88;2.53;;;;;;;;;;10454935;28;20156;-58
2023/06/15 12:32:48;;;;;;;2.90;2.17;;;;;;;;;;10454434;28;20040;-58
2023/06/15 12:37:49;;;;;;;3.05;2.60;;;;;;;;;;10452534;28;20029;-59
2023/06/15 12:42:59;;;;;;;3.08;2.38;;;;;;;;;;10460686;28;20061;-58
2023/06/15 12:48:00;;;;;;;3.42;2.55;;;;;;;;;;10462515;28;20029;-58
2023/06/15 12:53:02;;;;;;;2.78;2.55;;;;;;;;;;10441415;28;20075;-58
2023/06/15 12:58:03;;;;;;;3.35;2.65;;;;;;;;;;10455069;28;20094;-59
2023/06/15 13:03:08;;;;;;;3.05;2.67;;;;;;;;;;10450366;28;20215;-58
2023/06/15 13:08:10;;;;;;;2.63;2.40;;;;;;;;;;10446138;28;20078;-58
2023/06/15 13:13:11;;;;;;;7.85;2.85;;;;;;;;;;10466711;28;20082;-58
2023/06/15 13:18:13;;;;;;;3.05;2.55;;;;;;;;;;10453651;28;20029;-58
2023/06/15 13:23:14;;;;;;;3.08;2.65;;;;;;;;;;10455554;28;20098;-58
2023/06/15 13:28:15;;;;;;;4.13;2.78;;;;;;;;;;10461616;28;20048;-59
2023/06/15 13:33:19;;;;;;;2.75;2.55;;;;;;;;;;10413257;22;20073;-60
2023/06/15 13:38:20;;;;;;;3.35;3.05;;;;;;;;;;10373551;28;20040;-60
2023/06/15 13:43:20;;;;;;;3.28;2.97;;;;;;;;;;10405721;28;20370;-59
2023/06/15 13:48:22;;;;;;;3.35;2.58;;;;;;;;;;10405179;28;20644;-60
2023/06/15 13:53:22;;;;;;;4.05;3.33;;;;;;;;;;10394298;28;20038;-60
2023/06/15 13:58:23;;;;;;;4.03;2.75;;;;;;;;;;10420432;28;20056;-61
2023/06/15 14:03:24;;;;;;;5.57;3.28;;;;;;;;;;10406831;28;20041;-58
2023/06/15 14:08:24;;;;;;;5.50;3.10;;;;;;;;;;10412624;28;20096;-59
2023/06/15 14:13:26;;;;;;;11.60;2.95;;;;;;;;;;10408206;28;20025;-59
2023/06/15 14:18:27;;;;;;;3.75;2.65;;;;;;;;;;10409439;28;20032;-59
2023/06/15 14:23:28;;;;;;;5.70;2.90;;;;;;;;;;10409184;28;20041;-59
2023/06/15 14:28:29;;;;;;;8.48;3.33;;;;;;;;;;10408263;28;20037;-63
2023/06/15 14:33:29;;;;;;;4.18;2.70;;;;;;;;;;10408525;28;20558;-60
2023/06/15 14:38:30;;;;;;;7.57;3.60;;;;;;;;;;10408057;28;20103;-59
2023/06/15 14:43:30;;;;;;;3.60;3.30;;;;;;;;;;10407787;28;20040;-61
2023/06/15 14:48:31;;;;;;;4.43;3.30;;;;;;;;;;10408298;28;20037;-59
2023/06/15 14:53:31;;;;;;;4.00;2.90;;;;;;;;;;10408336;28;20036;-59
2023/06/15 14:58:32;;;;;;;4.93;3.05;;;;;;;;;;10408161;28;20025;-60
2023/06/15 15:03:33;;;;;;;4.22;3.30;;;;;;;;;;10407779;28;20028;-60
2023/06/15 15:08:33;;;;;;;4.03;2.63;;;;;;;;;;10407669;28;20022;-60
2023/06/15 15:13:34;;;;;;;4.15;3.10;;;;;;;;;;10407493;28;20485;-60
2023/06/15 15:18:35;;;;;;;5.00;3.00;;;;;;;;;;10406864;28;20033;-58
2023/06/15 15:23:36;;;;;;;3.83;2.90;;;;;;;;;;10407007;28;20056;-59
2023/06/15 15:28:37;;;;;;;3.47;3.10;;;;;;;;;;10406750;28;20021;-58
2023/06/15 15:33:37;;;;;;;4.45;3.00;;;;;;;;;;10406568;28;20197;-58
2023/06/15 15:38:38;;;;;;;3.22;2.88;;;;;;;;;;10407606;28;20036;-59
2023/06/15 15:43:39;;;;;;;3.75;3.03;;;;;;;;;;10408734;28;20042;-59
2023/06/15 15:48:39;;;;;;;3.22;2.85;;;;;;;;;;10405562;28;20576;-58
2023/06/15 15:53:40;;;;;;;4.20;3.30;;;;;;;;;;10406244;28;20026;-58
2023/06/15 15:58:40;;;;;;;3.03;2.70;;;;;;;;;;10406237;28;20018;-58
2023/06/15 16:03:41;;;;;;;4.00;3.15;;;;;;;;;;10405413;28;20036;-58
2023/06/15 16:08:41;;;;;;;4.18;3.00;;;;;;;;;;10406453;28;20095;-63
2023/06/15 16:13:43;;;;;;;3.78;3.10;;;;;;;;;;10405576;28;20036;-59
2023/06/15 16:18:43;;;;;;;4.20;3.03;;;;;;;;;;10399601;28;20021;-63
2023/06/15 16:23:44;;;;;;;4.65;3.30;;;;;;;;;;10404362;28;20022;-65
2023/06/15 16:28:46;;;;;;;3.88;2.92;;;;;;;;;;10402048;28;20404;-59
2023/06/15 16:33:47;;;;;;;8.10;4.85;;;;;;;;;;10403563;28;20515;-68
2023/06/15 16:38:47;;;;;;;7.78;4.70;;;;;;;;;;10410418;28;20087;-68
2023/06/15 16:43:48;;;;;;;4.90;4.30;;;;;;;;;;10409913;28;20317;-64
2023/06/15 16:48:48;;;;;;;8.57;4.32;;;;;;;;;;10405001;28;20048;-65
2023/06/15 16:53:49;;;;;;;5.03;4.53;;;;;;;;;;10408316;28;20033;-65
2023/06/15 16:58:50;;;;;;;5.43;4.65;;;;;;;;;;10408873;28;20021;-66
2023/06/15 17:03:50;;;;;;;4.47;4.07;;;;;;;;;;10411625;28;20063;-65
2023/06/15 17:08:51;;;;;;;7.95;4.80;;;;;;;;;;10411144;28;20033;-63
2023/06/15 17:13:52;;;;;;;5.72;5.00;;;;;;;;;;10411869;28;20123;-59
2023/06/15 17:18:53;;;;;;;5.20;4.55;;;;;;;;;;10411091;28;20026;-66
2023/06/15 17:23:54;;;;;;;5.30;4.78;;;;;;;;;;10411374;28;20036;-59
2023/06/15 17:28:54;;;;;;;6.82;4.70;;;;;;;;;;10411489;28;20022;-59
2023/06/15 17:33:55;;;;;;;7.75;4.63;;;;;;;;;;10410359;28;20049;-59
2023/06/15 17:38:55;;;;;;;5.70;4.50;;;;;;;;;;10410375;28;20041;-59
2023/06/15 17:43:56;;;;;;;4.88;4.35;;;;;;;;;;10409706;28;20022;-59
2023/06/15 17:48:56;;;;;;;4.63;4.22;;;;;;;;;;10410284;28;20029;-59
2023/06/15 17:53:57;;;;;;;5.40;3.90;;;;;;;;;;10410546;28;20068;-59
2023/06/15 17:58:58;;;;;;;4.90;4.35;;;;;;;;;;10409583;28;20481;-59
2023/06/15 18:03:58;;;;;;;4.78;3.80;;;;;;;;;;10409748;28;20504;-59
2023/06/15 18:08:59;;;;;;;4.63;3.92;;;;;;;;;;10408848;28;20473;-59
2023/06/15 18:14:00;;;;;;;5.07;4.07;;;;;;;;;;10408910;28;20104;-58
2023/06/15 18:19:02;;;;;;;4.60;4.20;;;;;;;;;;10409113;28;20022;-59
2023/06/15 18:24:03;;;;;;;5.78;4.25;;;;;;;;;;10408330;28;20037;-59
2023/06/15 18:29:03;;;;;;;4.28;3.88;;;;;;;;;;10408167;28;20025;-58
2023/06/15 18:34:04;;;;;;;4.50;3.92;;;;;;;;;;10408229;28;20049;-64
2023/06/15 18:39:04;;;;;;;4.53;4.10;;;;;;;;;;10410696;28;20029;-65
2023/06/15 18:44:05;;;;;;;4.88;3.92;;;;;;;;;;10408281;28;20034;-64
2023/06/15 18:49:06;;;;;;;4.57;4.13;;;;;;;;;;10405526;28;20021;-64
2023/06/15 18:54:06;;;;;;;5.80;4.20;;;;;;;;;;10407132;28;20478;-65
2023/06/15 18:59:07;;;;;;;6.10;4.20;;;;;;;;;;10413913;28;20025;-65
2023/06/15 19:04:07;;;;;;;6.78;4.18;;;;;;;;;;10414751;28;20051;-64
2023/06/15 19:09:09;;;;;;;9.57;4.53;;;;;;;;;;10408634;28;20029;-63
2023/06/15 19:14:10;;;;;;;11.85;5.63;;;;;;;;;;10407600;28;20470;-65
2023/06/15 19:19:10;;;;;;;14.43;8.25;;;;;;;;;;10403692;28;20021;-65
2023/06/15 19:24:11;;;;;;;19.70;8.38;;;;;;;;;;10397331;28;20040;-65
2023/06/15 19:29:11;;;;;;;16.00;7.50;;;;;;;;;;10401559;28;20034;-59
2023/06/15 19:34:13;;;;;;;16.55;8.30;;;;;;;;;;10405059;28;20041;-59
2023/06/15 19:39:15;;;;;;;13.88;7.25;;;;;;;;;;10403625;28;20420;-60
2023/06/15 19:44:15;;;;;;;13.07;6.82;;;;;;;;;;10406680;28;20441;-59
2023/06/15 19:49:16;;;;;;;10.57;6.82;;;;;;;;;;10404659;28;20033;-59
2023/06/15 19:54:17;;;;;;;11.40;5.85;;;;;;;;;;10405058;28;20079;-58
2023/06/15 19:59:18;;;;;;;10.77;5.85;;;;;;;;;;10406676;28;20469;-59
2023/06/15 20:04:19;;;;;;;9.32;5.30;;;;;;;;;;10406367;28;20033;-59
2023/06/15 20:09:19;;;;;;;16.27;6.25;;;;;;;;;;10406241;28;20024;-58
2023/06/15 20:14:22;;;;;;;8.90;5.32;;;;;;;;;;10413042;28;20249;-58
2023/06/15 20:19:23;;;;;;;6.82;5.07;;;;;;;;;;10416692;28;20032;-57
2023/06/15 20:24:23;;;;;;;6.47;4.75;;;;;;;;;;10412672;28;20426;-58
2023/06/15 20:29:24;;;;;;;7.55;4.90;;;;;;;;;;10408831;28;20674;-59
2023/06/15 20:34:25;;;;;;;11.13;5.07;;;;;;;;;;10410490;28;20038;-60
2023/06/15 20:39:25;;;;;;;8.02;5.00;;;;;;;;;;10401257;28;20033;-61
2023/06/15 20:44:26;;;;;;;7.40;4.65;;;;;;;;;;10413448;28;20453;-60
2023/06/15 20:49:26;;;;;;;9.60;4.25;;;;;;;;;;10413660;28;20020;-61
2023/06/15 20:54:27;;;;;;;5.45;4.03;;;;;;;;;;10411666;28;20033;-65
2023/06/15 20:59:27;;;;;;;10.00;5.32;;;;;;;;;;10412288;28;20029;-67
2023/06/15 21:04:28;;;;;;;5.18;4.35;;;;;;;;;;10402497;28;20183;-66
2023/06/15 21:09:29;;;;;;;8.13;5.38;;;;;;;;;;10415081;28;20025;-67
2023/06/15 21:14:29;;;;;;;6.45;4.88;;;;;;;;;;10411633;28;20032;-66
2023/06/15 21:19:30;;;;;;;10.55;4.55;;;;;;;;;;10410800;28;20025;-61
2023/06/15 21:24:31;;;;;;;8.00;4.85;;;;;;;;;;10407409;28;20068;-69
2023/06/15 21:29:31;;;;;;;7.03;4.88;;;;;;;;;;10409022;28;20029;-63
2023/06/15 21:34:32;;;;;;;7.07;4.60;;;;;;;;;;10405850;28;20053;-69
2023/06/15 21:39:32;;;;;;;5.18;4.50;;;;;;;;;;10410919;28;20397;-67
2023/06/15 21:44:33;;;;;;;7.07;4.35;;;;;;;;;;10406095;28;20466;-68
2023/06/15 21:49:34;;;;;;;4.68;3.80;;;;;;;;;;10414788;28;20025;-68
2023/06/15 21:54:34;;;;;;;7.07;4.22;;;;;;;;;;10408381;28;20037;-71
2023/06/15 21:59:35;;;;;;;7.97;4.13;;;;;;;;;;10412314;28;20036;-70
2023/06/15 22:04:35;;;;;;;5.45;4.18;;;;;;;;;;10409772;28;20060;-71
2023/06/15 22:09:37;;;;;;;6.38;4.65;;;;;;;;;;10410153;28;20028;-67
2023/06/15 22:14:38;;;;;;;10.65;4.10;;;;;;;;;;10392250;28;20040;-67
2023/06/15 22:19:41;;;;;;;7.93;4.60;;;;;;;;;;10409778;28;20029;-70
2023/06/15 22:24:41;;;;;;;4.35;3.80;;;;;;;;;;10408855;28;20037;-66
2023/06/15 22:29:43;;;;;;;6.72;4.10;;;;;;;;;;10406860;28;20397;-62
2023/06/15 22:34:44;;;;;;;5.72;4.30;;;;;;;;;;10405436;28;20052;-63
2023/06/15 22:39:44;;;;;;;5.95;4.20;;;;;;;;;;10407832;28;20021;-63
2023/06/15 22:44:46;;;;;;;6.20;3.97;;;;;;;;;;10407985;28;20029;-62
2023/06/15 22:49:47;;;;;;;4.85;3.92;;;;;;;;;;10408698;28;20052;-63
2023/06/15 22:54:49;;;;;;;6.30;4.13;;;;;;;;;;10407604;28;20402;-63
2023/06/15 22:59:49;;;;;;;4.20;3.75;;;;;;;;;;10408011;28;20108;-63
2023/06/15 23:04:51;;;;;;;5.20;4.20;;;;;;;;;;10407103;28;20032;-63
2023/06/15 23:09:52;;;;;;;6.90;3.75;;;;;;;;;;10407940;28;20151;-62
2023/06/15 23:14:57;;;;;;;8.05;4.50;;;;;;;;;;10407610;28;20045;-62
2023/06/15 23:19:58;;;;;;;5.50;4.50;;;;;;;;;;10395140;28;20038;-69
2023/06/15 23:24:58;;;;;;;4.85;3.70;;;;;;;;;;10406805;28;20389;-63
2023/06/15 23:30:00;;;;;;;7.30;3.70;;;;;;;;;;10406340;28;20022;-63
2023/06/15 23:35:01;;;;;;;4.95;3.92;;;;;;;;;;10406616;28;20512;-63
2023/06/15 23:40:02;;;;;;;4.88;4.22;;;;;;;;;;10406285;28;20024;-63
2023/06/15 23:45:03;;;;;;;5.57;3.97;;;;;;;;;;10411092;28;20040;-62
2023/06/15 23:50:04;;;;;;;8.65;3.90;;;;;;;;;;10420142;28;20028;-62
2023/06/15 23:55:07;;;;;;;7.93;4.00;;;;;;;;;;10403064;28;20080;-63
